createdAt,value
2022-12-01T00:01:12.748Z,7.30
2022-12-01T00:03:39.860Z,7.40
2022-12-01T00:06:11.814Z,7.40
2022-12-01T00:08:38.713Z,7.40
2022-12-01T00:11:13.088Z,7.50
2022-12-01T00:13:39.855Z,7.50
2022-12-01T00:16:11.817Z,7.50
2022-12-01T00:18:38.589Z,7.50
2022-12-01T00:21:06.124Z,7.50
2022-12-01T00:23:32.882Z,7.50
2022-12-01T00:26:06.263Z,7.50
2022-12-01T00:28:32.972Z,7.50
2022-12-01T00:31:00.249Z,7.50
2022-12-01T00:33:27.096Z,7.60
2022-12-01T00:36:00.295Z,7.60
2022-12-01T00:38:27.381Z,7.60
2022-12-01T00:40:54.178Z,7.60
2022-12-01T00:43:21.020Z,7.60
2022-12-01T00:45:47.993Z,7.60
2022-12-01T00:48:14.848Z,7.60
2022-12-01T00:50:41.595Z,7.50
2022-12-01T00:53:08.610Z,7.50
2022-12-01T00:55:35.382Z,7.60
2022-12-01T00:58:02.201Z,7.60
2022-12-01T01:00:28.978Z,7.60
2022-12-01T01:02:55.740Z,7.60
2022-12-01T01:05:23.424Z,7.50
2022-12-01T01:07:50.253Z,7.50
2022-12-01T01:10:17.300Z,7.50
2022-12-01T01:12:44.060Z,7.50
2022-12-01T01:15:10.984Z,7.50
2022-12-01T01:17:37.673Z,7.50
2022-12-01T01:20:06.985Z,7.50
2022-12-01T01:22:35.181Z,7.60
2022-12-01T01:25:01.890Z,7.50
2022-12-01T01:27:28.592Z,7.50
2022-12-01T01:29:55.292Z,7.50
2022-12-01T01:32:22.038Z,7.50
2022-12-01T01:34:48.789Z,7.50
2022-12-01T01:37:15.483Z,7.40
2022-12-01T01:39:42.202Z,7.40
2022-12-01T01:42:13.146Z,7.30
2022-12-01T01:44:50.162Z,7.20
2022-12-01T01:47:34.929Z,7.10
2022-12-01T01:50:06.517Z,7.10
2022-12-01T01:52:34.519Z,7.00
2022-12-01T01:55:01.261Z,6.90
2022-12-01T01:57:30.028Z,6.90
2022-12-01T02:00:01.754Z,6.80
2022-12-01T02:02:28.489Z,6.80
2022-12-01T02:05:01.205Z,6.80
2022-12-01T02:07:28.087Z,6.80
2022-12-01T02:09:54.920Z,6.80
2022-12-01T02:12:34.260Z,6.80
2022-12-01T02:15:23.533Z,6.80
2022-12-01T02:18:11.994Z,6.70
2022-12-01T02:21:08.216Z,6.80
2022-12-01T02:24:13.219Z,6.70
2022-12-01T02:26:58.466Z,6.60
2022-12-01T02:29:54.116Z,6.50
2022-12-01T02:32:23.689Z,6.50
2022-12-01T02:35:23.587Z,6.50
2022-12-01T02:38:04.825Z,6.50
2022-12-01T02:40:40.370Z,6.50
2022-12-01T02:43:27.704Z,6.60
2022-12-01T02:45:58.792Z,6.60
2022-12-01T02:48:30.651Z,6.60
2022-12-01T02:50:59.791Z,6.60
2022-12-01T02:53:26.658Z,6.60
2022-12-01T02:55:54.609Z,6.50
2022-12-01T02:58:21.510Z,6.50
2022-12-01T03:01:06.991Z,6.60
2022-12-01T03:04:09.828Z,6.60
2022-12-01T03:06:41.912Z,6.60
2022-12-01T03:09:33.595Z,6.60
2022-12-01T03:12:21.271Z,6.70
2022-12-01T03:15:18.570Z,6.70
2022-12-01T03:17:52.434Z,6.70
2022-12-01T03:20:56.009Z,6.70
2022-12-01T03:23:23.902Z,6.80
2022-12-01T03:25:52.030Z,6.80
2022-12-01T03:28:22.274Z,6.80
2022-12-01T03:30:51.123Z,6.80
2022-12-01T03:33:25.707Z,6.80
2022-12-01T03:35:56.091Z,6.80
2022-12-01T03:38:25.462Z,6.80
2022-12-01T03:40:57.112Z,6.80
2022-12-01T03:43:29.986Z,6.80
2022-12-01T03:46:27.489Z,6.70
2022-12-01T03:48:54.377Z,6.70
2022-12-01T03:51:34.396Z,6.80
2022-12-01T03:54:36.414Z,6.80
2022-12-01T03:57:05.076Z,6.80
2022-12-01T03:59:31.859Z,7.00
2022-12-01T04:01:58.709Z,6.80
2022-12-01T04:04:25.482Z,6.80
2022-12-01T04:06:52.449Z,6.90
2022-12-01T04:09:19.215Z,6.90
2022-12-01T04:12:04.793Z,6.90
2022-12-01T04:14:31.531Z,6.90
2022-12-01T04:16:58.259Z,6.90
2022-12-01T04:19:25.014Z,6.90
2022-12-01T04:21:51.758Z,6.90
2022-12-01T04:24:18.592Z,6.90
2022-12-01T04:26:46.164Z,6.90
2022-12-01T04:29:14.423Z,6.90
2022-12-01T04:31:41.251Z,6.80
2022-12-01T04:34:08.099Z,7.00
2022-12-01T04:36:35.214Z,7.00
2022-12-01T04:39:02.171Z,7.00
2022-12-01T04:41:28.983Z,7.00
2022-12-01T04:43:55.947Z,7.00
2022-12-01T04:46:23.272Z,7.00
2022-12-01T04:48:50.064Z,7.00
2022-12-01T04:51:16.835Z,7.00
2022-12-01T04:53:43.556Z,7.00
2022-12-01T04:56:10.391Z,7.00
2022-12-01T04:58:40.489Z,6.90
2022-12-01T05:01:12.205Z,6.90
2022-12-01T05:03:42.918Z,6.90
2022-12-01T05:06:11.333Z,6.80
2022-12-01T05:08:38.081Z,6.80
2022-12-01T05:11:07.556Z,6.80
2022-12-01T05:13:36.444Z,6.80
2022-12-01T05:16:16.474Z,6.80
2022-12-01T05:18:43.440Z,6.80
2022-12-01T05:21:10.737Z,6.80
2022-12-01T05:23:37.978Z,6.80
2022-12-01T05:26:08.341Z,6.80
2022-12-01T05:28:35.405Z,6.80
2022-12-01T05:31:02.306Z,6.80
2022-12-01T05:33:29.172Z,6.80
2022-12-01T05:35:56.011Z,6.80
2022-12-01T05:38:22.757Z,6.70
2022-12-01T05:40:53.461Z,6.80
2022-12-01T05:43:26.884Z,6.70
2022-12-01T05:45:55.731Z,6.70
2022-12-01T05:48:22.560Z,6.60
2022-12-01T05:50:49.238Z,6.60
2022-12-01T05:53:16.292Z,6.60
2022-12-01T05:55:43.036Z,6.70
2022-12-01T05:58:09.887Z,6.70
2022-12-01T06:00:40.858Z,6.70
2022-12-01T06:03:11.929Z,6.70
2022-12-01T06:05:38.733Z,6.70
2022-12-01T06:08:05.599Z,6.70
2022-12-01T06:10:32.376Z,6.70
2022-12-01T06:12:59.172Z,6.70
2022-12-01T06:15:26.261Z,6.70
2022-12-01T06:17:53.006Z,6.60
2022-12-01T06:20:19.998Z,6.60
2022-12-01T06:22:46.698Z,6.60
2022-12-01T06:25:13.558Z,6.50
2022-12-01T06:27:40.349Z,6.50
2022-12-01T06:30:07.728Z,6.50
2022-12-01T06:32:34.541Z,6.50
2022-12-01T06:35:01.594Z,6.50
2022-12-01T06:37:28.447Z,6.60
2022-12-01T06:39:55.152Z,6.60
2022-12-01T06:42:21.941Z,6.60
2022-12-01T06:44:48.786Z,6.50
2022-12-01T06:47:16.029Z,6.50
2022-12-01T06:49:42.963Z,6.40
2022-12-01T06:52:10.071Z,6.40
2022-12-01T06:54:37.652Z,6.30
2022-12-01T06:57:04.601Z,6.30
2022-12-01T06:59:31.752Z,6.30
2022-12-01T07:01:59.108Z,6.30
2022-12-01T07:04:25.912Z,6.30
2022-12-01T07:06:52.623Z,6.20
2022-12-01T07:09:19.369Z,6.20
2022-12-01T07:11:46.099Z,6.20
2022-12-01T07:14:23.285Z,6.10
2022-12-01T07:16:50.205Z,6.00
2022-12-01T07:19:16.984Z,5.90
2022-12-01T07:21:43.732Z,5.90
2022-12-01T07:24:14.078Z,5.80
2022-12-01T07:26:41.381Z,5.80
2022-12-01T07:29:11.331Z,5.80
2022-12-01T07:31:38.488Z,5.90
2022-12-01T07:34:05.441Z,5.80
2022-12-01T07:36:32.166Z,5.80
2022-12-01T07:38:59.052Z,5.90
2022-12-01T07:41:25.915Z,5.90
2022-12-01T07:43:52.705Z,5.90
2022-12-01T07:46:23.732Z,5.90
2022-12-01T07:48:51.717Z,5.90
2022-12-01T07:51:18.755Z,5.90
2022-12-01T07:53:45.942Z,6.00
2022-12-01T07:56:12.841Z,6.00
2022-12-01T07:58:39.748Z,6.00
2022-12-01T08:01:11.909Z,6.00
2022-12-01T08:03:39.109Z,5.90
2022-12-01T08:06:06.418Z,5.90
2022-12-01T08:08:35.582Z,5.90
2022-12-01T08:11:04.253Z,5.90
2022-12-01T08:13:30.984Z,5.90
2022-12-01T08:15:57.760Z,5.90
2022-12-01T08:18:24.576Z,5.80
2022-12-01T08:20:51.449Z,5.80
2022-12-01T08:23:18.379Z,5.80
2022-12-01T08:25:45.186Z,5.90
2022-12-01T08:28:11.980Z,5.90
2022-12-01T08:30:38.824Z,5.90
2022-12-01T08:33:05.971Z,6.00
2022-12-01T08:35:35.755Z,6.10
2022-12-01T08:38:02.618Z,6.10
2022-12-01T08:40:29.507Z,6.10
2022-12-01T08:42:56.473Z,6.20
2022-12-01T08:45:23.310Z,6.30
2022-12-01T08:47:50.182Z,6.30
2022-12-01T08:50:17.232Z,6.40
2022-12-01T08:52:44.060Z,6.50
2022-12-01T08:55:11.290Z,6.60
2022-12-01T08:57:38.077Z,6.60
2022-12-01T09:00:05.643Z,6.70
2022-12-01T09:02:32.513Z,6.80
2022-12-01T09:04:59.321Z,6.90
2022-12-01T09:07:26.800Z,6.90
2022-12-01T09:09:53.878Z,6.90
2022-12-01T09:12:20.818Z,7.00
2022-12-01T09:14:49.624Z,7.00
2022-12-01T09:17:16.955Z,7.00
2022-12-01T09:19:43.916Z,7.10
2022-12-01T09:22:11.220Z,7.10
2022-12-01T09:24:38.233Z,7.00
2022-12-01T09:27:05.072Z,7.10
2022-12-01T09:29:32.050Z,7.10
2022-12-01T09:31:59.305Z,7.10
2022-12-01T09:34:26.209Z,7.10
2022-12-01T09:36:55.605Z,7.10
2022-12-01T09:39:22.491Z,7.10
2022-12-01T09:42:12.860Z,7.10
2022-12-01T09:44:52.886Z,7.10
2022-12-01T09:47:22.553Z,7.10
2022-12-01T09:50:14.993Z,7.10
2022-12-01T09:52:44.811Z,7.10
2022-12-01T09:55:16.180Z,7.20
2022-12-01T09:57:43.355Z,7.30
2022-12-01T10:00:15.859Z,7.30
2022-12-01T10:03:21.387Z,7.40
2022-12-01T10:06:32.095Z,7.40
2022-12-01T10:09:08.122Z,7.50
2022-12-01T10:11:36.332Z,7.50
2022-12-01T10:14:03.969Z,7.50
2022-12-01T10:16:35.515Z,7.50
2022-12-01T10:19:06.026Z,7.60
2022-12-01T10:21:53.669Z,7.60
2022-12-01T10:24:32.433Z,7.60
2022-12-01T10:27:27.468Z,7.70
2022-12-01T10:30:12.684Z,7.80
2022-12-01T10:32:58.245Z,7.90
2022-12-01T10:35:27.263Z,7.90
2022-12-01T10:37:59.144Z,8.10
2022-12-01T10:40:27.019Z,8.20
2022-12-01T10:42:53.965Z,8.30
2022-12-01T10:45:34.977Z,8.40
2022-12-01T10:48:16.949Z,8.50
2022-12-01T10:50:46.299Z,8.50
2022-12-01T10:53:26.976Z,8.60
2022-12-01T10:56:10.275Z,8.60
2022-12-01T10:58:55.539Z,8.50
2022-12-01T11:01:24.328Z,8.50
2022-12-01T11:03:59.791Z,8.50
2022-12-01T11:06:28.441Z,8.60
2022-12-01T11:09:04.166Z,8.60
2022-12-01T11:11:36.234Z,8.60
2022-12-01T11:14:07.622Z,8.60
2022-12-01T11:16:44.194Z,8.70
2022-12-01T11:19:33.208Z,8.60
2022-12-01T11:22:18.757Z,8.60
2022-12-01T11:25:03.511Z,8.60
2022-12-01T11:27:36.948Z,8.60
2022-12-01T11:30:15.127Z,8.60
2022-12-01T11:32:41.872Z,8.70
2022-12-01T11:35:19.706Z,8.70
2022-12-01T11:40:57.218Z,8.80
2022-12-01T11:43:33.424Z,8.80
2022-12-01T11:46:04.205Z,8.80
2022-12-01T11:48:32.390Z,8.90
2022-12-01T11:51:15.478Z,8.90
2022-12-01T11:53:42.922Z,8.90
2022-12-01T11:56:43.041Z,8.90
2022-12-01T11:59:26.977Z,8.90
2022-12-01T12:02:15.292Z,8.90
2022-12-01T12:05:06.949Z,9.00
2022-12-01T12:07:37.799Z,9.00
2022-12-01T12:10:27.669Z,9.00
2022-12-01T12:13:13.317Z,9.10
2022-12-01T12:16:05.585Z,9.20
2022-12-01T12:18:38.090Z,9.20
2022-12-01T12:21:34.548Z,9.10
2022-12-01T12:24:07.243Z,9.10
2022-12-01T12:27:08.939Z,9.10
2022-12-01T12:29:50.988Z,9.10
2022-12-01T12:32:26.857Z,9.10
2022-12-01T12:35:18.556Z,9.20
2022-12-01T12:37:54.887Z,9.10
2022-12-01T12:40:58.034Z,9.20
2022-12-01T12:43:50.172Z,9.30
2022-12-01T12:46:25.833Z,9.40
2022-12-01T12:49:21.123Z,9.50
2022-12-01T12:51:40.823Z,9.60
2022-12-01T12:54:21.985Z,9.70
2022-12-01T12:56:53.352Z,9.70
2022-12-01T12:59:21.829Z,9.80
2022-12-01T13:02:02.668Z,9.70
2022-12-01T13:04:46.076Z,9.70
2022-12-01T13:07:15.860Z,9.70
2022-12-01T13:09:48.800Z,9.70
2022-12-01T13:12:33.890Z,9.80
2022-12-01T13:15:17.494Z,9.80
2022-12-01T13:18:05.666Z,9.80
2022-12-01T13:20:32.448Z,9.80
2022-12-01T13:22:59.780Z,9.90
2022-12-01T13:25:38.666Z,9.90
2022-12-01T13:28:07.796Z,10.00
2022-12-01T13:30:34.590Z,10.00
2022-12-01T13:33:04.923Z,10.10
2022-12-01T13:35:36.690Z,10.10
2022-12-01T13:38:20.079Z,10.10
2022-12-01T13:40:46.854Z,10.00
2022-12-01T13:43:22.743Z,10.10
2022-12-01T13:45:49.672Z,10.10
2022-12-01T13:48:50.195Z,10.00
2022-12-01T13:51:16.910Z,10.00
2022-12-01T13:54:06.328Z,9.90
2022-12-01T13:56:39.333Z,9.90
2022-12-01T13:59:46.417Z,9.90
2022-12-01T14:02:21.138Z,9.90
2022-12-01T14:04:48.327Z,9.80
2022-12-01T14:07:26.270Z,9.90
2022-12-01T14:09:56.088Z,9.90
2022-12-01T14:12:29.178Z,9.80
2022-12-01T14:15:06.033Z,9.80
2022-12-01T14:17:37.668Z,9.70
2022-12-01T14:20:16.489Z,9.70
2022-12-01T14:22:45.081Z,9.70
2022-12-01T14:25:21.150Z,9.70
2022-12-01T14:27:53.723Z,9.60
2022-12-01T14:30:39.551Z,9.60
2022-12-01T14:33:47.493Z,9.60
2022-12-01T14:36:26.020Z,9.60
2022-12-01T14:38:58.389Z,9.60
2022-12-01T14:41:25.849Z,9.60
2022-12-01T14:44:03.662Z,9.60
2022-12-01T14:46:39.916Z,9.60
2022-12-01T14:49:09.815Z,9.60
2022-12-01T14:51:36.562Z,9.60
2022-12-01T14:54:08.061Z,9.70
2022-12-01T14:56:34.845Z,9.60
2022-12-01T14:59:03.644Z,9.60
2022-12-01T15:01:32.744Z,9.60
2022-12-01T15:04:00.396Z,9.60
2022-12-01T15:06:28.196Z,9.50
2022-12-01T15:12:01.240Z,9.50
2022-12-01T15:14:27.944Z,9.50
2022-12-01T15:16:54.870Z,9.40
2022-12-01T15:19:33.776Z,9.50
2022-12-01T15:22:13.053Z,9.50
2022-12-01T15:24:39.853Z,9.40
2022-12-01T15:27:24.595Z,9.40
2022-12-01T15:29:51.824Z,9.40
2022-12-01T15:32:18.916Z,9.40
2022-12-01T15:34:47.095Z,9.40
2022-12-01T15:37:19.019Z,9.30
2022-12-01T15:43:14.385Z,9.30
2022-12-01T15:45:51.836Z,9.30
2022-12-01T15:48:35.225Z,9.30
2022-12-01T15:51:28.056Z,9.30
2022-12-01T15:54:01.130Z,9.20
2022-12-01T15:56:33.320Z,9.20
2022-12-01T15:59:13.033Z,9.20
2022-12-01T16:01:43.183Z,9.20
2022-12-01T16:04:20.868Z,9.10
2022-12-01T16:07:04.818Z,9.10
2022-12-01T16:09:37.037Z,9.00
2022-12-01T16:12:04.727Z,8.90
2022-12-01T16:14:32.333Z,8.90
2022-12-01T16:16:59.989Z,8.80
2022-12-01T16:19:30.910Z,8.70
2022-12-01T16:22:11.091Z,8.70
2022-12-01T16:24:53.765Z,8.60
2022-12-01T16:27:30.875Z,8.60
2022-12-01T16:30:02.733Z,8.60
2022-12-01T16:32:34.016Z,8.60
2022-12-01T16:35:01.104Z,8.50
2022-12-01T16:37:28.045Z,8.50
2022-12-01T16:39:54.732Z,8.50
2022-12-01T16:42:21.629Z,8.60
2022-12-01T16:44:49.620Z,8.50
2022-12-01T16:47:25.853Z,8.50
2022-12-01T16:49:52.893Z,8.50
2022-12-01T16:52:43.657Z,8.40
2022-12-01T16:55:24.566Z,8.40
2022-12-01T16:57:51.588Z,8.40
2022-12-01T17:00:18.633Z,8.40
2022-12-01T17:02:45.470Z,8.40
2022-12-01T17:05:12.394Z,8.30
2022-12-01T17:07:39.220Z,8.30
2022-12-01T17:10:06.554Z,8.20
2022-12-01T17:12:33.291Z,8.20
2022-12-01T17:14:59.987Z,8.10
2022-12-01T17:17:27.779Z,8.10
2022-12-01T17:19:54.587Z,8.00
2022-12-01T17:22:21.820Z,8.00
2022-12-01T17:24:49.040Z,7.90
2022-12-01T17:27:16.333Z,7.90
2022-12-01T17:29:46.288Z,7.80
2022-12-01T17:32:13.897Z,7.80
2022-12-01T17:34:40.850Z,7.70
2022-12-01T17:37:08.033Z,7.70
2022-12-01T17:39:34.745Z,7.60
2022-12-01T17:42:01.523Z,7.60
2022-12-01T17:44:28.316Z,7.50
2022-12-01T17:46:55.114Z,7.50
2022-12-01T17:49:23.796Z,7.50
2022-12-01T17:51:50.614Z,7.40
2022-12-01T17:54:17.572Z,7.40
2022-12-01T17:56:44.510Z,7.40
2022-12-01T17:59:11.253Z,7.30
2022-12-01T18:01:38.159Z,7.30
2022-12-01T18:04:05.108Z,7.30
2022-12-01T18:06:31.813Z,7.30
2022-12-01T18:08:59.971Z,7.30
2022-12-01T18:11:26.930Z,7.30
2022-12-01T18:13:53.824Z,7.30
2022-12-01T18:16:22.604Z,7.30
2022-12-01T18:18:49.563Z,7.30
2022-12-01T18:21:17.806Z,7.30
2022-12-01T18:23:55.166Z,7.30
2022-12-01T18:26:22.510Z,7.30
2022-12-01T18:28:55.861Z,7.30
2022-12-01T18:31:22.783Z,7.30
2022-12-01T18:33:49.608Z,7.30
2022-12-01T18:36:18.151Z,7.30
2022-12-01T18:38:47.177Z,7.30
2022-12-01T18:41:14.295Z,7.30
2022-12-01T18:43:41.191Z,7.30
2022-12-01T18:46:08.115Z,7.30
2022-12-01T18:48:35.347Z,7.40
2022-12-01T18:51:03.644Z,7.40
2022-12-01T18:53:30.552Z,7.40
2022-12-01T18:56:00.806Z,7.40
2022-12-01T18:58:27.558Z,7.40
2022-12-01T19:00:54.409Z,7.40
2022-12-01T19:03:21.417Z,7.40
2022-12-01T19:05:48.128Z,7.40
2022-12-01T19:08:14.945Z,7.50
2022-12-01T19:10:41.983Z,7.50
2022-12-01T19:13:08.813Z,7.50
2022-12-01T19:15:36.872Z,7.50
2022-12-01T19:18:03.750Z,7.40
2022-12-01T19:20:30.722Z,7.40
2022-12-01T19:22:57.430Z,7.40
2022-12-01T19:25:24.207Z,7.40
2022-12-01T19:27:53.167Z,7.40
2022-12-01T19:30:21.875Z,7.40
2022-12-01T19:32:49.056Z,7.40
2022-12-01T19:35:16.023Z,7.40
2022-12-01T19:37:42.911Z,7.40
2022-12-01T19:40:10.851Z,7.50
2022-12-01T19:42:37.973Z,7.40
2022-12-01T19:45:07.195Z,7.50
2022-12-01T19:47:34.129Z,7.40
2022-12-01T19:50:00.961Z,7.40
2022-12-01T19:52:28.808Z,7.50
2022-12-01T19:54:59.883Z,7.40
2022-12-01T19:57:26.877Z,7.30
2022-12-01T19:59:53.688Z,7.40
2022-12-01T20:02:28.919Z,7.40
2022-12-01T20:04:56.641Z,7.40
2022-12-01T20:07:23.429Z,7.40
2022-12-01T20:09:50.465Z,7.40
2022-12-01T20:12:17.612Z,7.40
2022-12-01T20:14:44.402Z,7.30
2022-12-01T20:17:15.690Z,7.30
2022-12-01T20:19:44.019Z,7.30
2022-12-01T20:22:11.028Z,7.20
2022-12-01T20:24:44.792Z,7.20
2022-12-01T20:27:11.594Z,7.20
2022-12-01T20:29:38.370Z,7.20
2022-12-01T20:32:05.281Z,7.20
2022-12-01T20:34:35.791Z,7.30
2022-12-01T20:37:02.684Z,7.20
2022-12-01T20:39:32.405Z,7.30
2022-12-01T20:41:59.208Z,7.30
2022-12-01T20:44:25.979Z,7.30
2022-12-01T20:46:52.768Z,7.20
2022-12-01T20:49:19.722Z,7.30
2022-12-01T20:51:46.784Z,7.30
2022-12-01T20:54:30.465Z,7.30
2022-12-01T20:56:57.870Z,7.30
2022-12-01T20:59:25.479Z,7.30
2022-12-01T21:01:52.247Z,7.20
2022-12-01T21:04:19.094Z,7.20
2022-12-01T21:06:46.251Z,7.20
2022-12-01T21:09:14.710Z,7.20
2022-12-01T21:12:05.380Z,7.20
2022-12-01T21:14:37.606Z,7.20
2022-12-01T21:17:12.653Z,7.20
2022-12-01T21:19:45.477Z,7.20
2022-12-01T21:22:13.034Z,7.20
2022-12-01T21:24:43.851Z,7.20
2022-12-01T21:27:15.293Z,7.20
2022-12-01T21:29:44.954Z,7.10
2022-12-01T21:32:16.642Z,7.10
2022-12-01T21:34:43.837Z,7.10
2022-12-01T21:37:22.769Z,7.20
2022-12-01T21:39:51.231Z,7.20
2022-12-01T21:42:36.158Z,7.20
2022-12-01T21:45:06.033Z,7.20
2022-12-01T21:47:32.813Z,7.20
2022-12-01T21:50:00.126Z,7.10
2022-12-01T21:52:37.494Z,7.10
2022-12-01T21:55:16.501Z,7.10
2022-12-01T21:57:47.089Z,7.10
2022-12-01T22:00:34.336Z,7.10
2022-12-01T22:03:13.063Z,7.10
2022-12-01T22:06:07.443Z,7.10
2022-12-01T22:08:38.609Z,7.20
2022-12-01T22:11:05.704Z,7.10
2022-12-01T22:13:54.880Z,7.20
2022-12-01T22:16:22.662Z,7.20
2022-12-01T22:18:54.110Z,7.20
2022-12-01T22:21:23.891Z,7.10
2022-12-01T22:23:57.161Z,7.10
2022-12-01T22:26:24.024Z,7.10
2022-12-01T22:28:56.503Z,7.10
2022-12-01T22:31:23.254Z,7.10
2022-12-01T22:34:03.295Z,7.00
2022-12-01T22:36:31.648Z,7.00
2022-12-01T22:38:58.483Z,7.00
2022-12-01T22:41:25.233Z,7.10
2022-12-01T22:43:56.485Z,7.00
2022-12-01T22:46:29.041Z,7.10
2022-12-01T22:49:13.782Z,7.00
2022-12-01T22:52:03.603Z,7.00
2022-12-01T22:54:38.127Z,7.00
2022-12-01T22:57:26.714Z,7.10
2022-12-01T22:59:53.532Z,7.10
2022-12-01T23:02:22.039Z,7.20
2022-12-01T23:04:52.482Z,7.20
2022-12-01T23:07:35.552Z,7.20
2022-12-01T23:10:29.137Z,7.20
2022-12-01T23:12:57.686Z,7.20
2022-12-01T23:15:35.228Z,7.10
2022-12-01T23:18:21.942Z,7.10
2022-12-01T23:20:50.543Z,7.10
2022-12-01T23:23:18.879Z,7.10
2022-12-01T23:25:46.287Z,7.10
2022-12-01T23:28:13.315Z,7.10
2022-12-01T23:30:42.279Z,7.10
2022-12-01T23:33:08.981Z,7.10
2022-12-01T23:35:45.303Z,7.00
2022-12-01T23:38:17.241Z,7.00
2022-12-01T23:40:44.446Z,7.00
2022-12-01T23:43:22.220Z,7.00
2022-12-01T23:45:58.711Z,7.00
2022-12-01T23:48:27.142Z,7.00
2022-12-01T23:50:54.091Z,7.00
2022-12-01T23:53:27.800Z,7.00
2022-12-01T23:55:54.978Z,7.00
2022-12-01T23:58:21.740Z,7.00
